sensor_id;sensor_type;location;lat;lon;timestamp;pressure;altitude;pressure_sealevel;temperature;humidity
35918;BME280;22011;59.912;30.300;2023-03-19T00:00:41;101848.25;;;5.43;32.53
35918;BME280;22011;59.912;30.300;2023-03-19T00:03:08;101851.63;;;5.45;32.77
35918;BME280;22011;59.912;30.300;2023-03-19T00:05:36;101839.69;;;5.52;32.09
35918;BME280;22011;59.912;30.300;2023-03-19T00:08:04;101840.63;;;5.51;33.48
35918;BME280;22011;59.912;30.300;2023-03-19T00:10:36;101840.22;;;5.57;32.75
35918;BME280;22011;59.912;30.300;2023-03-19T00:13:04;101829.84;;;5.54;31.90
35918;BME280;22011;59.912;30.300;2023-03-19T00:15:32;101832.50;;;5.54;32.89
35918;BME280;22011;59.912;30.300;2023-03-19T00:17:59;101829.31;;;5.49;33.07
35918;BME280;22011;59.912;30.300;2023-03-19T00:20:27;101833.88;;;5.47;33.01
35918;BME280;22011;59.912;30.300;2023-03-19T00:22:54;101832.38;;;5.43;33.47
35918;BME280;22011;59.912;30.300;2023-03-19T00:25:22;101831.53;;;5.43;33.36
35918;BME280;22011;59.912;30.300;2023-03-19T00:27:51;101827.94;;;5.44;33.66
35918;BME280;22011;59.912;30.300;2023-03-19T00:30:20;101815.69;;;5.43;34.34
35918;BME280;22011;59.912;30.300;2023-03-19T00:32:49;101819.06;;;5.45;32.95
35918;BME280;22011;59.912;30.300;2023-03-19T00:35:17;101809.34;;;5.45;34.31
35918;BME280;22011;59.912;30.300;2023-03-19T00:37:44;101810.41;;;5.43;34.05
35918;BME280;22011;59.912;30.300;2023-03-19T00:40:12;101821.81;;;5.43;34.58
35918;BME280;22011;59.912;30.300;2023-03-19T00:42:40;101812.94;;;5.44;33.19
35918;BME280;22011;59.912;30.300;2023-03-19T00:45:12;101810.91;;;5.48;34.50
35918;BME280;22011;59.912;30.300;2023-03-19T00:47:39;101813.16;;;5.41;34.33
35918;BME280;22011;59.912;30.300;2023-03-19T00:50:08;101811.44;;;5.40;34.46
35918;BME280;22011;59.912;30.300;2023-03-19T00:52:36;101804.47;;;5.39;34.09
35918;BME280;22011;59.912;30.300;2023-03-19T00:55:04;101797.06;;;5.44;34.85
35918;BME280;22011;59.912;30.300;2023-03-19T00:57:31;101796.66;;;5.38;34.34
35918;BME280;22011;59.912;30.300;2023-03-19T00:59:59;101810.19;;;5.33;34.74
35918;BME280;22011;59.912;30.300;2023-03-19T01:02:29;101803.00;;;5.35;34.43
35918;BME280;22011;59.912;30.300;2023-03-19T01:04:57;101803.22;;;5.32;34.77
35918;BME280;22011;59.912;30.300;2023-03-19T01:07:25;101799.81;;;5.30;34.98
35918;BME280;22011;59.912;30.300;2023-03-19T01:09:52;101790.31;;;5.28;35.37
35918;BME280;22011;59.912;30.300;2023-03-19T01:12:19;101793.06;;;5.26;34.89
35918;BME280;22011;59.912;30.300;2023-03-19T01:14:47;101792.22;;;5.25;34.64
35918;BME280;22011;59.912;30.300;2023-03-19T01:17:15;101794.97;;;5.24;34.84
35918;BME280;22011;59.912;30.300;2023-03-19T01:19:44;101787.78;;;5.26;36.31
35918;BME280;22011;59.912;30.300;2023-03-19T01:22:11;101792.22;;;5.25;34.90
35918;BME280;22011;59.912;30.300;2023-03-19T01:24:44;101787.78;;;5.26;34.58
35918;BME280;22011;59.912;30.300;2023-03-19T01:27:12;101797.50;;;5.25;35.26
35918;BME280;22011;59.912;30.300;2023-03-19T01:29:40;101790.41;;;5.26;35.41
35918;BME280;22011;59.912;30.300;2023-03-19T01:32:12;101787.56;;;5.29;35.07
35918;BME280;22011;59.912;30.300;2023-03-19T01:35:10;101775.09;;;5.31;35.98
35918;BME280;22011;59.912;30.300;2023-03-19T01:37:38;101768.97;;;5.31;35.14
35918;BME280;22011;59.912;30.300;2023-03-19T01:40:09;101763.56;;;5.32;35.60
35918;BME280;22011;59.912;30.300;2023-03-19T01:42:50;101765.34;;;5.44;35.30
35918;BME280;22011;59.912;30.300;2023-03-19T01:45:41;101762.09;;;5.28;35.42
35918;BME280;22011;59.912;30.300;2023-03-19T01:48:35;101756.06;;;5.26;35.76
35918;BME280;22011;59.912;30.300;2023-03-19T01:51:11;101752.59;;;5.25;35.69
35918;BME280;22011;59.912;30.300;2023-03-19T01:53:48;101748.13;;;5.26;35.55
35918;BME280;22011;59.912;30.300;2023-03-19T01:56:25;101740.00;;;5.29;35.47
35918;BME280;22011;59.912;30.300;2023-03-19T01:59:03;101740.28;;;5.50;35.53
35918;BME280;22011;59.912;30.300;2023-03-19T02:01:55;101741.06;;;5.26;35.53
35918;BME280;22011;59.912;30.300;2023-03-19T02:04:24;101741.63;;;5.19;35.92
35918;BME280;22011;59.912;30.300;2023-03-19T02:06:54;101744.03;;;5.22;36.27
35918;BME280;22011;59.912;30.300;2023-03-19T02:09:24;101738.84;;;5.20;35.41
35918;BME280;22011;59.912;30.300;2023-03-19T02:11:52;101736.34;;;5.19;35.39
35918;BME280;22011;59.912;30.300;2023-03-19T02:14:21;101735.50;;;5.18;36.00
35918;BME280;22011;59.912;30.300;2023-03-19T02:16:50;101741.00;;;5.15;35.32
35918;BME280;22011;59.912;30.300;2023-03-19T02:19:22;101731.38;;;5.14;35.05
35918;BME280;22011;59.912;30.300;2023-03-19T02:21:54;101730.63;;;5.12;35.50
35918;BME280;22011;59.912;30.300;2023-03-19T02:24:26;101724.81;;;5.20;35.79
35918;BME280;22011;59.912;30.300;2023-03-19T02:27:06;101714.75;;;5.25;35.42
35918;BME280;22011;59.912;30.300;2023-03-19T02:29:37;101708.50;;;5.26;34.94
35918;BME280;22011;59.912;30.300;2023-03-19T02:32:05;101714.00;;;5.23;35.16
35918;BME280;22011;59.912;30.300;2023-03-19T02:34:35;101706.94;;;5.23;35.45
35918;BME280;22011;59.912;30.300;2023-03-19T02:37:08;101699.09;;;5.22;36.26
35918;BME280;22011;59.912;30.300;2023-03-19T02:39:43;101704.75;;;5.17;36.33
35918;BME280;22011;59.912;30.300;2023-03-19T02:42:16;101700.31;;;5.18;35.56
35918;BME280;22011;59.912;30.300;2023-03-19T02:44:45;101699.78;;;5.13;35.87
35918;BME280;22011;59.912;30.300;2023-03-19T02:47:13;101691.66;;;5.16;36.56
35918;BME280;22011;59.912;30.300;2023-03-19T02:49:41;101688.59;;;5.09;36.55
35918;BME280;22011;59.912;30.300;2023-03-19T02:52:09;101697.78;;;5.04;36.86
35918;BME280;22011;59.912;30.300;2023-03-19T02:54:37;101689.84;;;5.04;37.47
35918;BME280;22011;59.912;30.300;2023-03-19T02:57:04;101693.56;;;5.01;37.68
35918;BME280;22011;59.912;30.300;2023-03-19T02:59:33;101690.91;;;5.01;37.98
35918;BME280;22011;59.912;30.300;2023-03-19T03:02:01;101697.34;;;4.97;38.04
35918;BME280;22011;59.912;30.300;2023-03-19T03:04:29;101696.53;;;4.97;38.14
35918;BME280;22011;59.912;30.300;2023-03-19T03:06:57;101702.63;;;4.97;37.92
35918;BME280;22011;59.912;30.300;2023-03-19T03:09:25;101695.03;;;4.92;38.32
35918;BME280;22011;59.912;30.300;2023-03-19T03:11:53;101698.63;;;4.91;38.33
35918;BME280;22011;59.912;30.300;2023-03-19T03:14:20;101691.44;;;4.93;38.56
35918;BME280;22011;59.912;30.300;2023-03-19T03:16:49;101700.09;;;4.96;38.49
35918;BME280;22011;59.912;30.300;2023-03-19T03:19:17;101690.59;;;4.93;37.86
35918;BME280;22011;59.912;30.300;2023-03-19T03:21:45;101692.28;;;4.94;38.07
35918;BME280;22011;59.912;30.300;2023-03-19T03:24:13;101689.75;;;4.92;38.55
35918;BME280;22011;59.912;30.300;2023-03-19T03:26:41;101683.72;;;4.90;38.67
35918;BME280;22011;59.912;30.300;2023-03-19T03:29:09;101681.50;;;4.97;37.41
35918;BME280;22011;59.912;30.300;2023-03-19T03:31:36;101688.81;;;4.93;38.36
35918;BME280;22011;59.912;30.300;2023-03-19T03:34:05;101681.84;;;4.92;38.79
35918;BME280;22011;59.912;30.300;2023-03-19T03:36:33;101685.97;;;4.84;38.63
35918;BME280;22011;59.912;30.300;2023-03-19T03:39:00;101679.94;;;4.82;38.90
35918;BME280;22011;59.912;30.300;2023-03-19T03:41:29;101681.72;;;4.81;38.58
35918;BME280;22011;59.912;30.300;2023-03-19T03:43:57;101686.28;;;4.79;38.79
35918;BME280;22011;59.912;30.300;2023-03-19T03:46:24;101679.81;;;4.83;38.65
35918;BME280;22011;59.912;30.300;2023-03-19T03:48:52;101674.66;;;4.82;38.26
35918;BME280;22011;59.912;30.300;2023-03-19T03:51:21;101675.06;;;4.88;37.83
35918;BME280;22011;59.912;30.300;2023-03-19T03:53:48;101684.16;;;4.84;37.68
35918;BME280;22011;59.912;30.300;2023-03-19T03:56:16;101675.59;;;4.81;37.49
35918;BME280;22011;59.912;30.300;2023-03-19T03:58:43;101677.19;;;4.83;37.09
35918;BME280;22011;59.912;30.300;2023-03-19T04:01:13;101672.44;;;4.88;36.97
35918;BME280;22011;59.912;30.300;2023-03-19T04:03:42;101677.72;;;4.88;37.40
35918;BME280;22011;59.912;30.300;2023-03-19T04:06:12;101675.06;;;4.88;37.48
35918;BME280;22011;59.912;30.300;2023-03-19T04:08:42;101680.03;;;4.80;37.61
35918;BME280;22011;59.912;30.300;2023-03-19T04:11:10;101681.94;;;4.78;37.55
35918;BME280;22011;59.912;30.300;2023-03-19T04:13:38;101679.41;;;4.77;37.40
35918;BME280;22011;59.912;30.300;2023-03-19T04:16:07;101683.63;;;4.79;37.70
35918;BME280;22011;59.912;30.300;2023-03-19T04:18:36;101689.00;;;4.78;37.43
35918;BME280;22011;59.912;30.300;2023-03-19T04:21:04;101683.84;;;4.76;36.84
35918;BME280;22011;59.912;30.300;2023-03-19T04:23:32;101683.22;;;4.73;37.33
35918;BME280;22011;59.912;30.300;2023-03-19T04:26:03;101684.69;;;4.77;38.04
35918;BME280;22011;59.912;30.300;2023-03-19T04:28:32;101681.50;;;4.72;38.43
35918;BME280;22011;59.912;30.300;2023-03-19T04:31:01;101675.72;;;4.79;36.85
35918;BME280;22011;59.912;30.300;2023-03-19T04:33:32;101673.06;;;4.79;37.07
35918;BME280;22011;59.912;30.300;2023-03-19T04:36:01;101675.91;;;4.76;36.96
35918;BME280;22011;59.912;30.300;2023-03-19T04:38:28;101674.97;;;4.77;37.03
35918;BME280;22011;59.912;30.300;2023-03-19T04:40:57;101667.91;;;4.78;37.05
35918;BME280;22011;59.912;30.300;2023-03-19T04:43:26;101666.63;;;4.83;36.43
35918;BME280;22011;59.912;30.300;2023-03-19T04:45:54;101667.47;;;4.84;35.11
35918;BME280;22011;59.912;30.300;2023-03-19T04:48:22;101668.31;;;4.84;36.25
35918;BME280;22011;59.912;30.300;2023-03-19T04:50:52;101661.34;;;4.83;36.60
35918;BME280;22011;59.912;30.300;2023-03-19T04:53:22;101674.53;;;5.09;36.63
35918;BME280;22011;59.912;30.300;2023-03-19T04:55:50;101665.88;;;4.81;36.70
35918;BME280;22011;59.912;30.300;2023-03-19T04:58:19;101665.88;;;4.81;36.22
35918;BME280;22011;59.912;30.300;2023-03-19T05:00:56;101663.56;;;4.89;37.00
35918;BME280;22011;59.912;30.300;2023-03-19T05:03:39;101662.41;;;4.81;36.85
35918;BME280;22011;59.912;30.300;2023-03-19T05:06:06;101664.31;;;4.79;36.72
35918;BME280;22011;59.912;30.300;2023-03-19T05:08:34;101664.72;;;4.85;35.79
35918;BME280;22011;59.912;30.300;2023-03-19T05:11:02;101659.97;;;4.90;35.88
35918;BME280;22011;59.912;30.300;2023-03-19T05:13:39;101649.41;;;4.90;36.52
35918;BME280;22011;59.912;30.300;2023-03-19T05:16:10;101654.69;;;4.90;37.02
35918;BME280;22011;59.912;30.300;2023-03-19T05:18:38;101642.66;;;4.86;36.68
35918;BME280;22011;59.912;30.300;2023-03-19T05:21:09;101660.19;;;4.87;37.06
35918;BME280;22011;59.912;30.300;2023-03-19T05:23:37;101648.16;;;4.83;37.54
35918;BME280;22011;59.912;30.300;2023-03-19T05:26:07;101656.59;;;4.88;37.26
35918;BME280;22011;59.912;30.300;2023-03-19T05:29:04;101657.44;;;4.89;37.82
35918;BME280;22011;59.912;30.300;2023-03-19T05:31:53;101658.91;;;4.80;37.92
35918;BME280;22011;59.912;30.300;2023-03-19T05:34:22;101651.00;;;4.80;38.37
35918;BME280;22011;59.912;30.300;2023-03-19T05:36:49;101664.41;;;4.77;37.80
35918;BME280;22011;59.912;30.300;2023-03-19T05:39:18;101659.56;;;4.71;38.23
35918;BME280;22011;59.912;30.300;2023-03-19T05:41:46;101657.84;;;4.70;38.09
35918;BME280;22011;59.912;30.300;2023-03-19T05:44:18;101656.81;;;4.73;37.91
35918;BME280;22011;59.912;30.300;2023-03-19T05:47:01;101655.53;;;4.78;38.04
35918;BME280;22011;59.912;30.300;2023-03-19T05:49:33;101652.91;;;4.78;38.37
35918;BME280;22011;59.912;30.300;2023-03-19T05:52:00;101651.84;;;4.81;38.45
35918;BME280;22011;59.912;30.300;2023-03-19T05:54:29;101655.44;;;4.80;38.27
35918;BME280;22011;59.912;30.300;2023-03-19T05:57:06;101649.63;;;4.87;37.42
35918;BME280;22011;59.912;30.300;2023-03-19T05:59:43;101655.63;;;4.89;38.38
35918;BME280;22011;59.912;30.300;2023-03-19T06:02:42;101659.13;;;5.03;38.45
35918;BME280;22011;59.912;30.300;2023-03-19T06:05:15;101651.94;;;5.05;37.71
35918;BME280;22011;59.912;30.300;2023-03-19T06:07:44;101646.88;;;5.02;37.71
35918;BME280;22011;59.912;30.300;2023-03-19T06:10:21;101645.91;;;5.03;37.03
35918;BME280;22011;59.912;30.300;2023-03-19T06:12:52;101653.94;;;5.01;38.16
35918;BME280;22011;59.912;30.300;2023-03-19T06:15:36;101657.97;;;4.94;38.35
35918;BME280;22011;59.912;30.300;2023-03-19T06:18:26;101654.25;;;4.97;38.17
35918;BME280;22011;59.912;30.300;2023-03-19T06:20:54;101660.50;;;4.96;38.17
35918;BME280;22011;59.912;30.300;2023-03-19T06:23:21;101663.97;;;4.96;37.70
35918;BME280;22011;59.912;30.300;2023-03-19T06:25:49;101664.72;;;4.98;37.41
35918;BME280;22011;59.912;30.300;2023-03-19T06:28:18;101666.31;;;5.01;37.20
35918;BME280;22011;59.912;30.300;2023-03-19T06:30:45;101660.19;;;5.00;38.53
35918;BME280;22011;59.912;30.300;2023-03-19T06:33:52;101667.66;;;5.06;38.36
35918;BME280;22011;59.912;30.300;2023-03-19T06:36:21;101671.38;;;5.04;39.02
35918;BME280;22011;59.912;30.300;2023-03-19T06:38:48;101668.50;;;5.07;38.59
35918;BME280;22011;59.912;30.300;2023-03-19T06:41:16;101663.34;;;5.05;38.35
35918;BME280;22011;59.912;30.300;2023-03-19T06:43:45;101673.06;;;5.05;38.43
35918;BME280;22011;59.912;30.300;2023-03-19T06:46:12;101673.91;;;5.05;38.74
35918;BME280;22011;59.912;30.300;2023-03-19T06:48:40;101671.47;;;5.02;38.63
35918;BME280;22011;59.912;30.300;2023-03-19T06:51:09;101670.19;;;5.08;39.21
35918;BME280;22011;59.912;30.300;2023-03-19T06:53:36;101664.41;;;5.03;39.14
35918;BME280;22011;59.912;30.300;2023-03-19T06:56:05;101666.50;;;5.10;38.58
35918;BME280;22011;59.912;30.300;2023-03-19T06:58:32;101672.41;;;5.14;38.78
35918;BME280;22011;59.912;30.300;2023-03-19T07:01:01;101669.78;;;5.14;39.49
35918;BME280;22011;59.912;30.300;2023-03-19T07:03:29;101666.91;;;5.17;39.50
35918;BME280;22011;59.912;30.300;2023-03-19T07:05:57;101674.16;;;5.26;39.67
35918;BME280;22011;59.912;30.300;2023-03-19T07:08:26;101672.16;;;5.30;39.79
35918;BME280;22011;59.912;30.300;2023-03-19T07:10:54;101665.28;;;5.27;40.23
35918;BME280;22011;59.912;30.300;2023-03-19T07:13:22;101671.09;;;5.32;39.50
35918;BME280;22011;59.912;30.300;2023-03-19T07:15:50;101671.09;;;5.32;39.90
35918;BME280;22011;59.912;30.300;2023-03-19T07:18:17;101666.53;;;5.34;39.14
35918;BME280;22011;59.912;30.300;2023-03-19T07:20:45;101666.09;;;5.40;39.36
35918;BME280;22011;59.912;30.300;2023-03-19T07:23:12;101667.03;;;5.39;39.13
35918;BME280;22011;59.912;30.300;2023-03-19T07:25:41;101659.53;;;5.46;39.00
35918;BME280;22011;59.912;30.300;2023-03-19T07:28:08;101664.28;;;5.41;39.86
35918;BME280;22011;59.912;30.300;2023-03-19T07:30:36;101663.66;;;5.37;39.69
35918;BME280;22011;59.912;30.300;2023-03-19T07:33:04;101666.09;;;5.40;39.49
35918;BME280;22011;59.912;30.300;2023-03-19T07:35:32;101665.88;;;5.43;39.53
35918;BME280;22011;59.912;30.300;2023-03-19T07:37:59;101660.38;;;5.46;40.08
35918;BME280;22011;59.912;30.300;2023-03-19T07:40:27;101667.13;;;5.50;39.72
35918;BME280;22011;59.912;30.300;2023-03-19T07:42:56;101667.94;;;5.64;39.98
35918;BME280;22011;59.912;30.300;2023-03-19T07:45:24;101666.13;;;5.64;39.17
35918;BME280;22011;59.912;30.300;2023-03-19T07:47:51;101665.16;;;5.65;39.57
35918;BME280;22011;59.912;30.300;2023-03-19T07:50:19;101672.44;;;5.74;39.32
35918;BME280;22011;59.912;30.300;2023-03-19T07:52:47;101673.47;;;5.84;39.20
35918;BME280;22011;59.912;30.300;2023-03-19T07:55:16;101664.56;;;5.85;39.01
35918;BME280;22011;59.912;30.300;2023-03-19T07:57:44;101670.41;;;5.90;39.08
35918;BME280;22011;59.912;30.300;2023-03-19T08:00:14;101668.75;;;6.01;39.17
35918;BME280;22011;59.912;30.300;2023-03-19T08:02:44;101663.47;;;6.01;39.37
35918;BME280;22011;59.912;30.300;2023-03-19T08:05:11;101665.28;;;6.00;39.67
35918;BME280;22011;59.912;30.300;2023-03-19T08:07:39;101661.66;;;6.01;39.37
35918;BME280;22011;59.912;30.300;2023-03-19T08:10:08;101668.41;;;6.05;39.75
35918;BME280;22011;59.912;30.300;2023-03-19T08:12:36;101664.69;;;6.08;39.78
35918;BME280;22011;59.912;30.300;2023-03-19T08:15:07;101662.78;;;6.10;38.97
35918;BME280;22011;59.912;30.300;2023-03-19T08:17:36;101658.94;;;6.14;39.46
35918;BME280;22011;59.912;30.300;2023-03-19T08:20:06;101657.88;;;6.16;39.51
35918;BME280;22011;59.912;30.300;2023-03-19T08:22:34;101661.56;;;6.49;39.09
35918;BME280;22011;59.912;30.300;2023-03-19T08:25:02;101657.66;;;6.19;39.70
35918;BME280;22011;59.912;30.300;2023-03-19T08:27:30;101655.97;;;6.18;39.65
35918;BME280;22011;59.912;30.300;2023-03-19T08:30:00;101665.53;;;6.54;39.45
35918;BME280;22011;59.912;30.300;2023-03-19T08:32:27;101662.84;;;6.32;39.23
35918;BME280;22011;59.912;30.300;2023-03-19T08:34:56;101660.84;;;6.47;38.77
35918;BME280;22011;59.912;30.300;2023-03-19T08:37:24;101660.59;;;6.50;39.61
35918;BME280;22011;59.912;30.300;2023-03-19T08:39:51;101661.81;;;6.57;39.07
35918;BME280;22011;59.912;30.300;2023-03-19T08:42:19;101646.78;;;6.57;39.40
35918;BME280;22011;59.912;30.300;2023-03-19T08:44:47;101651.00;;;6.60;39.39
35918;BME280;22011;59.912;30.300;2023-03-19T08:47:15;101653.91;;;6.68;38.29
35918;BME280;22011;59.912;30.300;2023-03-19T08:49:43;101654.38;;;6.62;39.40
35918;BME280;22011;59.912;30.300;2023-03-19T08:52:12;101656.19;;;6.73;39.81
35918;BME280;22011;59.912;30.300;2023-03-19T08:54:39;101657.38;;;6.69;39.08
35918;BME280;22011;59.912;30.300;2023-03-19T08:57:07;101657.25;;;6.70;39.26
35918;BME280;22011;59.912;30.300;2023-03-19T08:59:35;101655.81;;;6.66;39.13
35918;BME280;22011;59.912;30.300;2023-03-19T09:02:02;101655.34;;;6.72;39.78
35918;BME280;22011;59.912;30.300;2023-03-19T09:04:30;101660.41;;;6.75;39.74
35918;BME280;22011;59.912;30.300;2023-03-19T09:07:01;101659.69;;;6.84;38.78
35918;BME280;22011;59.912;30.300;2023-03-19T09:09:30;101658.25;;;6.92;39.51
35918;BME280;22011;59.912;30.300;2023-03-19T09:11:58;101647.66;;;6.92;39.75
35918;BME280;22011;59.912;30.300;2023-03-19T09:14:25;101655.38;;;6.95;39.31
35918;BME280;22011;59.912;30.300;2023-03-19T09:16:53;101652.34;;;6.99;39.65
35918;BME280;22011;59.912;30.300;2023-03-19T09:19:20;101646.22;;;6.99;39.74
35918;BME280;22011;59.912;30.300;2023-03-19T09:21:48;101653.69;;;7.05;38.45
35918;BME280;22011;59.912;30.300;2023-03-19T09:24:16;101654.53;;;7.05;38.90
35918;BME280;22011;59.912;30.300;2023-03-19T09:26:46;101641.88;;;7.09;39.56
35918;BME280;22011;59.912;30.300;2023-03-19T09:29:14;101638.63;;;7.05;39.71
35918;BME280;22011;59.912;30.300;2023-03-19T09:31:42;101646.44;;;7.07;39.52
35918;BME280;22011;59.912;30.300;2023-03-19T09:34:10;101642.72;;;7.09;39.25
35918;BME280;22011;59.912;30.300;2023-03-19T09:36:39;101645.00;;;7.14;39.59
35918;BME280;22011;59.912;30.300;2023-03-19T09:39:06;101645.97;;;7.13;39.54
35918;BME280;22011;59.912;30.300;2023-03-19T09:41:39;101651.97;;;7.26;39.73
35918;BME280;22011;59.912;30.300;2023-03-19T09:44:19;101636.66;;;7.30;40.27
35918;BME280;22011;59.912;30.300;2023-03-19T09:46:51;101637.97;;;7.35;39.62
35918;BME280;22011;59.912;30.300;2023-03-19T09:49:23;101638.44;;;7.40;39.62
35918;BME280;22011;59.912;30.300;2023-03-19T09:51:54;101641.19;;;7.50;39.08
35918;BME280;22011;59.912;30.300;2023-03-19T09:54:29;101636.47;;;7.65;39.61
35918;BME280;22011;59.912;30.300;2023-03-19T09:56:57;101641.66;;;7.55;39.37
35918;BME280;22011;59.912;30.300;2023-03-19T09:59:27;101633.72;;;7.55;39.90
35918;BME280;22011;59.912;30.300;2023-03-19T10:02:00;101625.56;;;7.79;39.58
35918;BME280;22011;59.912;30.300;2023-03-19T10:04:41;101637.31;;;7.54;39.32
35918;BME280;22011;59.912;30.300;2023-03-19T10:07:27;101640.19;;;7.62;40.81
35918;BME280;22011;59.912;30.300;2023-03-19T10:10:20;101635.63;;;7.64;40.58
35918;BME280;22011;59.912;30.300;2023-03-19T10:12:56;101643.22;;;7.58;40.26
35918;BME280;22011;59.912;30.300;2023-03-19T10:15:30;101638.16;;;7.54;40.56
35918;BME280;22011;59.912;30.300;2023-03-19T10:18:02;101642.00;;;7.62;40.71
35918;BME280;22011;59.912;30.300;2023-03-19T10:20:44;101643.31;;;7.67;40.65
35918;BME280;22011;59.912;30.300;2023-03-19T10:23:28;101640.03;;;7.75;40.18
35918;BME280;22011;59.912;30.300;2023-03-19T10:26:02;101641.97;;;7.73;40.25
35918;BME280;22011;59.912;30.300;2023-03-19T10:28:30;101640.28;;;7.72;39.67
35918;BME280;22011;59.912;30.300;2023-03-19T10:31:10;101638.44;;;7.83;40.65
35918;BME280;22011;59.912;30.300;2023-03-19T10:33:43;101644.88;;;7.70;41.31
35918;BME280;22011;59.912;30.300;2023-03-19T10:36:11;101640.31;;;7.61;40.78
35918;BME280;22011;59.912;30.300;2023-03-19T10:38:40;101644.91;;;7.59;41.14
35918;BME280;22011;59.912;30.300;2023-03-19T10:41:22;101647.88;;;7.76;40.64
35918;BME280;22011;59.912;30.300;2023-03-19T10:43:53;101647.78;;;7.67;40.33
35918;BME280;22011;59.912;30.300;2023-03-19T10:46:24;101642.72;;;7.64;40.84
35918;BME280;22011;59.912;30.300;2023-03-19T10:48:51;101644.31;;;7.55;42.01
35918;BME280;22011;59.912;30.300;2023-03-19T10:51:21;101637.81;;;7.59;41.74
35918;BME280;22011;59.912;30.300;2023-03-19T10:53:52;101640.81;;;7.54;41.50
35918;BME280;22011;59.912;30.300;2023-03-19T10:56:22;101643.47;;;7.54;41.88
35918;BME280;22011;59.912;30.300;2023-03-19T10:58:57;101630.31;;;7.64;42.13
35918;BME280;22011;59.912;30.300;2023-03-19T11:01:31;101634.91;;;7.62;42.14
35918;BME280;22011;59.912;30.300;2023-03-19T11:04:00;101633.69;;;7.66;41.44
35918;BME280;22011;59.912;30.300;2023-03-19T11:06:31;101644.63;;;7.73;41.46
35918;BME280;22011;59.912;30.300;2023-03-19T11:09:01;101638.25;;;7.64;41.42
35918;BME280;22011;59.912;30.300;2023-03-19T11:11:34;101626.56;;;7.67;41.97
35918;BME280;22011;59.912;30.300;2023-03-19T11:14:08;101629.31;;;7.76;41.39
35918;BME280;22011;59.912;30.300;2023-03-19T11:16:48;101621.56;;;7.84;41.49
35918;BME280;22011;59.912;30.300;2023-03-19T11:19:22;101622.66;;;7.82;41.83
35918;BME280;22011;59.912;30.300;2023-03-19T11:22:15;101621.78;;;7.93;42.07
35918;BME280;22011;59.912;30.300;2023-03-19T11:24:50;101619.53;;;7.77;41.23
35918;BME280;22011;59.912;30.300;2023-03-19T11:27:18;101621.22;;;7.78;41.92
35918;BME280;22011;59.912;30.300;2023-03-19T11:29:53;101615.06;;;7.77;41.24
35918;BME280;22011;59.912;30.300;2023-03-19T11:32:32;101615.38;;;7.95;40.95
35918;BME280;22011;59.912;30.300;2023-03-19T11:35:04;101611.91;;;7.83;41.93
35918;BME280;22011;59.912;30.300;2023-03-19T11:37:46;101608.25;;;7.96;41.36
35918;BME280;22011;59.912;30.300;2023-03-19T11:40:20;101613.94;;;7.91;41.60
35918;BME280;22011;59.912;30.300;2023-03-19T11:43:05;101610.91;;;7.96;41.68
35918;BME280;22011;59.912;30.300;2023-03-19T11:45:38;101610.22;;;7.82;41.96
35918;BME280;22011;59.912;30.300;2023-03-19T11:48:24;101613.34;;;7.87;42.15
35918;BME280;22011;59.912;30.300;2023-03-19T11:50:57;101612.44;;;7.77;42.24
35918;BME280;22011;59.912;30.300;2023-03-19T11:53:28;101609.66;;;7.79;41.62
35918;BME280;22011;59.912;30.300;2023-03-19T11:56:06;101609.28;;;7.83;42.60
35918;BME280;22011;59.912;30.300;2023-03-19T11:59:03;101611.78;;;7.85;42.51
35918;BME280;22011;59.912;30.300;2023-03-19T12:01:55;101626.78;;;7.75;42.49
35918;BME280;22011;59.912;30.300;2023-03-19T12:04:53;101613.53;;;7.75;43.20
35918;BME280;22011;59.912;30.300;2023-03-19T12:07:31;101622.47;;;7.63;43.11
35918;BME280;22011;59.912;30.300;2023-03-19T12:12:48;101620.31;;;7.57;43.81
35918;BME280;22011;59.912;30.300;2023-03-19T12:15:25;101611.41;;;7.58;43.32
35918;BME280;22011;59.912;30.300;2023-03-19T12:18:01;101614.31;;;7.54;44.16
35918;BME280;22011;59.912;30.300;2023-03-19T12:20:38;101598.81;;;7.71;43.08
35918;BME280;22011;59.912;30.300;2023-03-19T12:23:16;101597.91;;;7.49;44.17
35918;BME280;22011;59.912;30.300;2023-03-19T12:25:58;101599.59;;;7.50;44.47
35918;BME280;22011;59.912;30.300;2023-03-19T12:28:32;101606.63;;;7.40;43.73
35918;BME280;22011;59.912;30.300;2023-03-19T12:31:14;101582.34;;;7.56;43.06
35918;BME280;22011;59.912;30.300;2023-03-19T12:33:48;101596.59;;;7.55;42.63
35918;BME280;22011;59.912;30.300;2023-03-19T12:36:23;101588.38;;;7.58;43.57
35918;BME280;22011;59.912;30.300;2023-03-19T12:38:54;101592.47;;;7.62;43.30
35918;BME280;22011;59.912;30.300;2023-03-19T12:41:24;101597.44;;;7.55;43.35
35918;BME280;22011;59.912;30.300;2023-03-19T12:43:56;101588.38;;;7.58;44.35
35918;BME280;22011;59.912;30.300;2023-03-19T12:46:28;101604.66;;;7.53;44.26
35918;BME280;22011;59.912;30.300;2023-03-19T12:49:03;101599.69;;;7.60;44.35
35918;BME280;22011;59.912;30.300;2023-03-19T12:51:34;101591.28;;;7.55;44.57
35918;BME280;22011;59.912;30.300;2023-03-19T12:54:05;101594.31;;;7.50;44.57
35918;BME280;22011;59.912;30.300;2023-03-19T12:56:40;101588.25;;;7.60;44.37
35918;BME280;22011;59.912;30.300;2023-03-19T12:59:14;101593.31;;;7.63;44.60
35918;BME280;22011;59.912;30.300;2023-03-19T13:01:48;101587.53;;;7.58;44.17
35918;BME280;22011;59.912;30.300;2023-03-19T13:04:19;101591.28;;;7.55;43.79
35918;BME280;22011;59.912;30.300;2023-03-19T13:06:52;101581.13;;;7.60;44.38
35918;BME280;22011;59.912;30.300;2023-03-19T13:09:29;101575.97;;;7.59;44.43
35918;BME280;22011;59.912;30.300;2023-03-19T13:11:59;101582.00;;;7.49;44.31
35918;BME280;22011;59.912;30.300;2023-03-19T13:14:35;101571.88;;;7.54;44.27